Terminal Aerodrome Forecast
Issued by NWS Charleston, WV

Current Version | Previous Version | Graphics & Text | Print | Product List | Glossary On
Versions: 1 2 3 4 5 6 7 8 9 10 11 12 13 14 15 16 17 18 19 20 21
868
FTUS41 KRLX 202339
TAFCRW
TAF
KCRW 202339Z 2100/2124 20005KT P6SM SCT080
     FM210500 21005KT 5SM SHRA BKN050
     FM210700 24004KT 3SM TSRA BKN040CB
     FM211000 24006KT P6SM SHRA VCTS BKN015CB OVC025
     FM211800 28006KT P6SM BKN025
     FM212000 29005KT P6SM BKN045=

USA.gov is the U.S. government's official web portal to all federal, state and local government web resources and services.